Time;durP1;ratioP1;P1;durP2;ratioP2;P2;SDS_P1;SDS_P2;PMS_P1;PMS_P2;Temp;Humidity;BMP_temperature;BMP_pressure;BME280_temperature;BME280_humidity;BME280_pressure;Samples;Min_cycle;Max_cycle;Signal;HPM_P1;HPM_P2
2023/06/20 00:00:59;;;;;;;11.73;7.78;;;;;;;18.83;100.00;100031.13;5005524;28;20030;-17
2023/06/20 00:03:25;;;;;;;11.02;8.18;;;;;;;18.75;100.00;100031.66;5005507;28;20064;-18
2023/06/20 00:05:50;;;;;;;11.50;7.95;;;;;;;18.09;100.00;100040.66;5005524;28;20092;-18
2023/06/20 00:08:16;;;;;;;11.50;7.60;;;;;;;18.16;100.00;100026.88;5005360;28;20033;-18
2023/06/20 00:10:41;;;;;;;9.27;7.70;;;;;;;18.71;100.00;100035.19;5005467;28;20061;-18
2023/06/20 00:13:07;;;;;;;10.25;7.82;;;;;;;18.76;100.00;100022.50;5005608;28;20021;-19
2023/06/20 00:15:32;;;;;;;11.07;8.48;;;;;;;18.79;100.00;100046.28;5005565;28;20022;-18
2023/06/20 00:18:01;;;;;;;11.18;8.52;;;;;;;18.72;100.00;100050.34;5005161;28;20112;-18
2023/06/20 00:20:27;;;;;;;11.77;8.57;;;;;;;18.48;100.00;100035.50;5005110;28;20112;-18
2023/06/20 00:22:54;;;;;;;11.27;8.50;;;;;;;18.67;100.00;100043.03;5005174;28;20034;-18
2023/06/20 00:25:19;;;;;;;11.18;8.07;;;;;;;18.49;100.00;100036.34;5008708;28;20160;-19
2023/06/20 00:27:45;;;;;;;12.13;9.30;;;;;;;18.28;100.00;100036.31;5009022;28;20425;-18
2023/06/20 00:30:11;;;;;;;11.07;8.43;;;;;;;18.44;100.00;100030.91;5009023;28;20022;-20
2023/06/20 00:32:36;;;;;;;12.65;8.07;;;;;;;18.60;100.00;100029.81;5009036;28;20089;-19
2023/06/20 00:35:02;;;;;;;11.32;8.07;;;;;;;18.41;100.00;100016.09;5008576;28;20080;-18
2023/06/20 00:37:28;;;;;;;9.65;7.22;;;;;;;18.39;100.00;100023.66;5008930;28;20021;-18
2023/06/20 00:39:54;;;;;;;10.40;8.35;;;;;;;18.56;100.00;100023.34;5008689;28;20034;-18
2023/06/20 00:42:23;;;;;;;9.55;7.90;;;;;;;18.53;100.00;100025.78;5008723;28;20129;-18
2023/06/20 00:44:51;;;;;;;11.10;8.13;;;;;;;18.44;100.00;100025.53;5008428;28;20057;-19
2023/06/20 00:47:18;;;;;;;11.25;8.40;;;;;;;18.28;100.00;100027.41;5008750;28;20044;-18
2023/06/20 00:49:46;;;;;;;12.73;8.40;;;;;;;18.27;100.00;100020.41;5008951;28;20029;-18
2023/06/20 00:52:16;;;;;;;12.90;8.65;;;;;;;18.33;100.00;100015.81;5008585;28;20038;-18
2023/06/20 00:54:46;;;;;;;12.13;8.77;;;;;;;18.35;100.00;100017.16;5008694;28;20025;-18
2023/06/20 00:57:13;;;;;;;10.63;7.57;;;;;;;18.23;100.00;100013.94;5008758;28;20113;-19
2023/06/20 00:59:42;;;;;;;11.35;8.23;;;;;;;18.42;100.00;100017.69;5008603;28;20417;-18
2023/06/20 01:02:07;;;;;;;10.35;7.22;;;;;;;18.14;100.00;100020.94;5008381;28;20026;-18
2023/06/20 01:04:33;;;;;;;10.52;7.57;;;;;;;18.17;100.00;100017.72;5008393;28;20092;-18
2023/06/20 01:07:27;;;;;;;12.40;8.40;;;;;;;18.35;100.00;100017.16;5008080;28;20100;-18
2023/06/20 01:10:30;;;;;;;10.77;7.53;;;;;;;18.19;100.00;100010.97;5008291;28;20029;-20
2023/06/20 01:13:17;;;;;;;12.20;8.25;;;;;;;18.30;100.00;99998.25;5008056;28;20132;-19
2023/06/20 01:15:55;;;;;;;12.82;7.95;;;;;;;18.34;100.00;100009.34;5008358;28;21356;-22
2023/06/20 01:18:44;;;;;;;12.27;9.35;;;;;;;18.41;100.00;100015.28;5008038;28;20132;-18
2023/06/20 01:21:14;;;;;;;12.93;8.65;;;;;;;18.16;100.00;100018.78;5008178;28;20068;-18
2023/06/20 01:23:57;;;;;;;13.50;9.18;;;;;;;17.62;100.00;100020.06;5008117;28;20253;-17
2023/06/20 01:26:30;;;;;;;10.60;7.78;;;;;;;17.50;100.00;100014.91;5008173;28;20091;-18
2023/06/20 01:29:02;;;;;;;10.98;7.45;;;;;;;17.62;100.00;100020.88;5007883;28;20037;-18
2023/06/20 01:31:37;;;;;;;9.90;7.38;;;;;;;16.83;100.00;100005.75;5008094;28;20048;-18
2023/06/20 01:34:27;;;;;;;11.40;7.25;;;;;;;16.91;100.00;99999.88;5007622;28;20149;-18
2023/06/20 01:37:01;;;;;;;10.43;7.10;;;;;;;17.45;100.00;100020.31;5007788;28;20038;-18
2023/06/20 01:39:54;;;;;;;13.50;7.80;;;;;;;17.38;100.00;100019.72;5007862;28;20498;-18
2023/06/20 01:42:23;;;;;;;12.30;8.10;;;;;;;17.26;100.00;100022.66;5006037;28;20050;-18
2023/06/20 01:44:51;;;;;;;13.98;8.07;;;;;;;17.25;100.00;100005.66;5007588;28;20453;-18
2023/06/20 01:47:19;;;;;;;12.25;8.60;;;;;;;17.30;100.00;100022.94;5007870;28;20026;-18
2023/06/20 01:49:47;;;;;;;;;;;;;;;17.10;100.00;100004.81;5008037;28;20034;-19
2023/06/20 01:52:15;;;;;;;16.05;8.30;;;;;;;16.98;100.00;100013.09;5007564;28;19936;-23
2023/06/20 01:54:41;;;;;;;;;;;;;;;17.02;100.00;100024.97;5008216;28;20084;-20
2023/06/20 01:57:08;;;;;;;12.68;8.75;;;;;;;17.02;100.00;100016.88;5007450;28;19913;-18
2023/06/20 01:59:35;;;;;;;11.82;8.50;;;;;;;17.09;100.00;100012.09;5007295;28;20037;-18
2023/06/20 02:02:03;;;;;;;12.07;8.63;;;;;;;17.23;100.00;100015.09;5007359;28;20037;-18
2023/06/20 02:04:31;;;;;;;10.80;8.05;;;;;;;16.78;100.00;100017.28;5007368;28;20042;-19
2023/06/20 02:06:58;;;;;;;11.48;7.93;;;;;;;16.99;100.00;100023.63;5007125;28;20501;-18
2023/06/20 02:09:24;;;;;;;14.70;7.97;;;;;;;17.22;100.00;100027.78;5006821;28;20038;-17
2023/06/20 02:11:51;;;;;;;12.52;8.25;;;;;;;16.98;100.00;100034.66;5007452;28;20537;-18
2023/06/20 02:14:17;;;;;;;13.93;8.38;;;;;;;17.15;100.00;100027.19;5006477;28;20033;-18
2023/06/20 02:16:43;;;;;;;11.10;7.60;;;;;;;16.95;100.00;100016.31;5007281;28;20170;-19
2023/06/20 02:19:09;;;;;;;11.82;7.32;;;;;;;17.10;100.00;100037.13;5006849;28;20034;-18
2023/06/20 02:21:40;;;;;;;10.50;7.70;;;;;;;16.98;100.00;100027.41;5007136;28;20033;-18
2023/06/20 02:24:06;;;;;;;10.68;7.88;;;;;;;17.13;100.00;100018.56;5006965;28;20044;-18
2023/06/20 02:26:38;;;;;;;13.10;7.75;;;;;;;17.13;100.00;100026.66;4989028;28;20049;-18
2023/06/20 02:29:07;;;;;;;10.93;7.80;;;;;;;16.97;100.00;100030.34;5006513;28;20037;-18
2023/06/20 02:31:35;;;;;;;14.30;7.75;;;;;;;17.09;100.00;100024.75;5006842;28;20034;-18
2023/06/20 02:34:04;;;;;;;14.93;7.82;;;;;;;17.29;100.00;100034.81;5006687;28;20026;-18
2023/06/20 02:36:31;;;;;;;14.45;8.20;;;;;;;17.21;100.00;100041.50;5006612;28;20034;-20
2023/06/20 02:38:57;;;;;;;15.25;7.68;;;;;;;17.25;100.00;100038.00;5006795;28;20523;-18
2023/06/20 02:41:23;;;;;;;11.00;7.13;;;;;;;17.11;100.00;100022.59;5006556;28;20034;-18
2023/06/20 02:43:49;;;;;;;13.07;8.10;;;;;;;17.06;100.00;100040.38;5006142;28;20121;-18
2023/06/20 02:46:17;;;;;;;12.07;7.93;;;;;;;16.95;100.00;100043.25;5005804;28;20120;-18
2023/06/20 02:48:58;;;;;;;11.13;7.53;;;;;;;16.81;100.00;100042.91;5006609;28;20029;-18
2023/06/20 02:51:30;;;;;;;11.13;7.90;;;;;;;16.86;100.00;100057.22;5006191;28;20049;-18
2023/06/20 02:54:14;;;;;;;11.48;7.85;;;;;;;16.93;100.00;100056.19;5006365;28;20036;-17
2023/06/20 02:56:43;;;;;;;12.38;7.18;;;;;;;16.76;100.00;100057.13;5006202;28;20028;-19
2023/06/20 02:59:11;;;;;;;10.80;8.15;;;;;;;16.85;100.00;100060.19;5006221;28;20049;-18
2023/06/20 03:01:39;;;;;;;11.45;8.13;;;;;;;16.79;100.00;100064.69;5005959;28;20039;-18
2023/06/20 03:04:06;;;;;;;;;;;;;;;16.67;100.00;100051.44;5006765;28;20057;-18
2023/06/20 03:06:37;;;;;;;11.20;8.07;;;;;;;16.71;100.00;100065.16;5005969;28;20365;-19
2023/06/20 03:09:04;;;;;;;10.05;7.22;;;;;;;16.65;100.00;100066.22;5006067;28;20034;-18
2023/06/20 03:11:29;;;;;;;11.50;7.53;;;;;;;16.70;100.00;100077.03;5005982;28;20116;-18
2023/06/20 03:13:55;;;;;;;12.15;8.60;;;;;;;16.74;100.00;100080.03;5005915;28;20113;-17
2023/06/20 03:16:20;;;;;;;11.73;8.50;;;;;;;16.96;100.00;100078.03;5006211;28;20409;-18
2023/06/20 03:18:47;;;;;;;12.38;9.02;;;;;;;16.93;100.00;100085.81;5006059;28;20489;-19
2023/06/20 03:21:12;;;;;;;12.95;8.38;;;;;;;16.80;100.00;100084.38;5005957;28;20022;-19
2023/06/20 03:23:38;;;;;;;13.02;8.73;;;;;;;16.87;100.00;100058.84;5005749;28;20036;-16
2023/06/20 03:26:04;;;;;;;12.23;9.30;;;;;;;17.02;100.00;100082.38;5005836;28;20030;-17
2023/06/20 03:28:30;;;;;;;15.57;10.02;;;;;;;16.95;100.00;100080.97;5005719;28;20041;-18
2023/06/20 03:30:55;;;;;;;14.50;9.85;;;;;;;16.99;100.00;100077.50;5005714;28;20026;-18
2023/06/20 03:33:20;;;;;;;13.98;9.48;;;;;;;16.93;100.00;100080.44;5005832;28;20026;-18
2023/06/20 03:35:46;;;;;;;14.52;10.30;;;;;;;17.18;100.00;100085.97;5005538;28;20037;-16
2023/06/20 03:38:12;;;;;;;15.82;9.85;;;;;;;17.16;100.00;100088.13;5005777;28;20063;-18
2023/06/20 03:40:37;;;;;;;15.23;10.65;;;;;;;17.21;100.00;100087.31;5005266;28;20034;-18
2023/06/20 03:43:03;;;;;;;15.60;11.15;;;;;;;17.31;100.00;100089.25;5005493;28;20053;-17
2023/06/20 03:45:28;;;;;;;20.15;11.32;;;;;;;17.51;100.00;100094.72;5005421;28;20033;-18
2023/06/20 03:47:54;;;;;;;17.77;11.30;;;;;;;17.55;100.00;100093.13;5005686;28;20891;-19
2023/06/20 03:50:19;;;;;;;14.15;10.85;;;;;;;17.44;100.00;100089.56;5005105;28;20054;-22
2023/06/20 03:52:44;;;;;;;13.48;10.10;;;;;;;17.58;100.00;100095.28;5005777;28;20030;-18
2023/06/20 03:55:10;;;;;;;16.83;10.98;;;;;;;17.61;100.00;100094.78;5005554;28;20026;-18
2023/06/20 03:57:35;;;;;;;20.15;11.13;;;;;;;17.65;100.00;100095.03;5006230;28;20465;-19
2023/06/20 04:00:09;;;;;;;15.40;10.52;;;;;;;17.86;100.00;100093.25;5009514;28;20522;-17
2023/06/20 04:02:34;;;;;;;14.93;10.27;;;;;;;17.99;100.00;100094.63;5009482;28;20643;-18
2023/06/20 04:05:00;;;;;;;14.32;10.55;;;;;;;18.01;100.00;100104.06;5009234;28;20473;-20
2023/06/20 04:07:25;;;;;;;15.20;11.05;;;;;;;17.95;100.00;100105.13;5009363;28;20039;-18
2023/06/20 04:09:50;;;;;;;14.88;10.82;;;;;;;17.86;100.00;100101.34;5009257;28;20041;-18
2023/06/20 04:12:16;;;;;;;14.60;10.90;;;;;;;18.07;100.00;100099.47;5009147;28;20025;-18
2023/06/20 04:14:42;;;;;;;14.75;10.88;;;;;;;18.22;100.00;100109.47;5009407;28;20034;-18
2023/06/20 04:17:07;;;;;;;15.27;10.68;;;;;;;18.29;100.00;100107.34;5009295;28;20084;-20
2023/06/20 04:19:33;;;;;;;15.05;11.93;;;;;;;18.35;100.00;100111.66;5008939;28;20486;-17
2023/06/20 04:21:59;;;;;;;14.88;11.27;;;;;;;18.03;100.00;100112.69;5009141;28;20033;-17
2023/06/20 04:24:25;;;;;;;15.40;11.90;;;;;;;18.03;100.00;100112.69;5008934;28;20034;-18
2023/06/20 04:26:50;;;;;;;16.55;12.00;;;;;;;18.30;100.00;100122.44;5009124;28;20456;-18
2023/06/20 04:29:16;;;;;;;16.83;11.55;;;;;;;18.13;100.00;100113.81;5009073;28;20026;-17
2023/06/20 04:31:41;;;;;;;15.25;11.75;;;;;;;18.21;100.00;100115.97;5008815;28;20033;-18
2023/06/20 04:34:07;;;;;;;15.90;11.95;;;;;;;18.45;100.00;100119.75;5008886;28;20032;-19
2023/06/20 04:36:34;;;;;;;16.65;13.18;;;;;;;18.73;100.00;100114.88;5008803;28;20029;-17
2023/06/20 04:39:00;;;;;;;19.42;12.80;;;;;;;18.67;100.00;100127.59;5009018;28;20021;-18
2023/06/20 04:41:25;;;;;;;18.10;13.57;;;;;;;18.73;100.00;100120.28;5008830;28;20076;-19
2023/06/20 04:43:51;;;;;;;18.48;13.63;;;;;;;18.73;100.00;100124.88;5008736;28;20501;-19
2023/06/20 04:46:16;;;;;;;17.70;12.93;;;;;;;18.65;100.00;100134.34;5008835;28;20034;-18
2023/06/20 04:48:44;;;;;;;16.83;12.70;;;;;;;18.98;100.00;100122.19;5008420;28;20022;-19
2023/06/20 04:51:10;;;;;;;16.92;12.23;;;;;;;19.24;100.00;100130.22;5008215;28;20142;-18
2023/06/20 04:53:36;;;;;;;15.07;12.25;;;;;;;19.14;100.00;100130.25;5008667;28;20192;-18
2023/06/20 04:56:02;;;;;;;15.35;12.43;;;;;;;19.17;100.00;100116.19;5008334;28;20452;-20
2023/06/20 04:58:28;;;;;;;17.85;13.32;;;;;;;19.23;100.00;100129.41;5008433;28;20049;-18
2023/06/20 05:00:58;;;;;;;17.90;12.23;;;;;;;19.31;100.00;100140.75;5008498;28;20026;-25
2023/06/20 05:03:24;;;;;;;19.55;13.70;;;;;;;19.32;100.00;100134.25;5008411;28;20080;-18
2023/06/20 05:05:50;;;;;;;18.10;13.07;;;;;;;19.48;100.00;100133.13;5008534;28;20033;-18
2023/06/20 05:08:15;;;;;;;19.63;13.43;;;;;;;19.60;100.00;100139.03;5008272;28;20030;-18
2023/06/20 05:10:41;;;;;;;20.95;12.68;;;;;;;19.79;100.00;100135.72;5007680;28;20672;-19
2023/06/20 05:13:06;;;;;;;16.38;13.50;;;;;;;19.78;100.00;100129.50;5008213;28;20033;-18
2023/06/20 05:15:32;;;;;;;17.63;13.25;;;;;;;19.91;100.00;100133.50;5008042;28;20061;-19
2023/06/20 05:17:57;;;;;;;18.02;13.38;;;;;;;19.99;100.00;100140.22;5008080;28;20060;-18
2023/06/20 05:20:22;;;;;;;14.38;12.00;;;;;;;19.97;100.00;100137.78;5008182;28;20030;-18
2023/06/20 05:22:48;;;;;;;15.88;12.05;;;;;;;20.03;98.97;100142.06;5008003;28;20505;-19
2023/06/20 05:25:14;;;;;;;14.50;11.30;;;;;;;19.97;100.00;100128.88;5008171;28;20018;-18
2023/06/20 05:27:40;;;;;;;16.85;11.95;;;;;;;20.12;99.70;100130.66;5007984;28;20084;-18
2023/06/20 05:30:06;;;;;;;15.10;11.95;;;;;;;20.18;99.38;100126.81;5007669;28;20117;-18
2023/06/20 05:32:31;;;;;;;15.50;11.30;;;;;;;20.35;98.12;100134.56;5007893;28;20026;-17
2023/06/20 05:34:57;;;;;;;15.60;11.35;;;;;;;20.67;95.30;100136.75;5007767;28;20034;-18
2023/06/20 05:37:22;;;;;;;14.35;11.55;;;;;;;20.92;93.02;100134.91;5007807;28;20088;-19
2023/06/20 05:39:48;;;;;;;19.45;12.02;;;;;;;20.90;94.58;100134.38;5007944;28;20021;-18
2023/06/20 05:42:13;;;;;;;15.85;11.70;;;;;;;20.95;91.13;100131.66;5007609;28;20064;-20
2023/06/20 05:44:39;;;;;;;14.90;11.43;;;;;;;21.15;92.78;100138.78;5007526;28;20073;-18
2023/06/20 05:47:05;;;;;;;16.63;12.18;;;;;;;21.21;90.44;100133.00;5007159;28;20033;-17
2023/06/20 05:49:31;;;;;;;15.65;11.63;;;;;;;21.26;89.05;100132.91;5007427;28;20045;-18
2023/06/20 05:51:57;;;;;;;13.43;10.95;;;;;;;21.35;87.94;100133.13;5007378;28;20080;-17
2023/06/20 05:54:25;;;;;;;16.70;12.00;;;;;;;21.42;88.89;100130.88;5007407;28;20018;-20
2023/06/20 05:56:51;;;;;;;14.60;11.20;;;;;;;21.41;87.24;100131.13;5007470;28;20030;-19
2023/06/20 05:59:17;;;;;;;14.50;10.65;;;;;;;21.53;86.83;100120.69;5007462;28;20154;-18
2023/06/20 06:01:43;;;;;;;12.18;9.98;;;;;;;21.63;82.89;100123.28;5007051;28;20061;-19
2023/06/20 06:04:09;;;;;;;15.95;10.23;;;;;;;21.80;79.13;100122.81;5007250;28;20424;-17
2023/06/20 06:06:34;;;;;;;13.02;9.57;;;;;;;22.05;77.02;100137.94;5005882;28;20034;-18
2023/06/20 06:08:59;;;;;;;11.93;9.30;;;;;;;22.07;76.22;100138.44;5007044;28;20485;-18
2023/06/20 06:11:25;;;;;;;13.70;10.20;;;;;;;22.00;78.48;100129.84;5007160;28;20026;-18
2023/06/20 06:13:50;;;;;;;11.98;9.43;;;;;;;22.20;76.80;100136.09;5007109;28;20029;-18
2023/06/20 06:16:17;;;;;;;13.85;9.05;;;;;;;22.33;75.43;100119.09;5007009;28;20026;-18
2023/06/20 06:18:43;;;;;;;12.60;9.93;;;;;;;22.35;76.38;100130.47;5006974;28;20034;-18
2023/06/20 06:21:08;;;;;;;11.70;9.45;;;;;;;22.72;75.86;100142.34;5006105;28;20429;-18
2023/06/20 06:23:34;;;;;;;11.15;9.18;;;;;;;22.76;74.34;100129.78;5006697;28;20061;-18
2023/06/20 06:26:00;;;;;;;13.05;9.00;;;;;;;22.90;74.75;100121.63;5006706;28;20056;-18
2023/06/20 06:28:27;;;;;;;13.70;9.70;;;;;;;22.94;74.04;100111.75;5006538;28;20605;-18
2023/06/20 06:31:07;;;;;;;13.32;9.77;;;;;;;23.20;73.64;100098.53;5004831;28;20030;-21
2023/06/20 06:33:33;;;;;;;10.63;8.68;;;;;;;23.38;71.87;100109.59;5006671;28;20109;-18
2023/06/20 06:35:59;;;;;;;14.18;9.55;;;;;;;23.26;74.69;100108.19;5006767;28;20125;-18
2023/06/20 06:38:25;;;;;;;13.68;8.95;;;;;;;23.59;70.70;100099.91;5005918;28;20092;-18
2023/06/20 06:40:54;;;;;;;11.63;8.32;;;;;;;23.76;71.38;100109.34;5005713;28;20030;-18
2023/06/20 06:43:26;;;;;;;11.27;9.32;;;;;;;23.70;69.58;100105.13;5123507;27;20782;-17
2023/06/20 06:45:52;;;;;;;12.68;9.18;;;;;;;23.97;70.24;100104.28;5123596;28;20534;-17
2023/06/20 06:48:18;;;;;;;11.95;8.82;;;;;;;24.05;68.88;100101.63;5123792;28;20073;-17
2023/06/20 06:50:43;;;;;;;11.68;9.13;;;;;;;24.36;65.44;100117.25;5123639;28;20426;-18
2023/06/20 06:53:10;;;;;;;12.80;9.35;;;;;;;24.38;65.28;100120.47;5123566;28;20038;-17
2023/06/20 06:55:35;;;;;;;12.63;8.77;;;;;;;24.44;65.47;100108.31;5123682;28;20019;-17
2023/06/20 06:58:01;;;;;;;11.98;8.85;;;;;;;24.67;63.68;100116.50;5123400;28;20034;-18
2023/06/20 07:00:27;;;;;;;14.13;8.95;;;;;;;24.83;62.99;100106.00;5123533;28;20482;-18
2023/06/20 07:02:52;;;;;;;13.43;9.00;;;;;;;25.03;60.93;100107.38;5123472;28;20031;-22
2023/06/20 07:05:19;;;;;;;13.95;10.00;;;;;;;25.15;59.83;100096.69;5123471;28;20031;-18
2023/06/20 07:07:45;;;;;;;14.13;9.90;;;;;;;25.19;59.48;100088.66;5124119;28;20028;-19
2023/06/20 07:10:10;;;;;;;11.70;8.70;;;;;;;25.32;58.81;100086.97;5123226;28;20039;-17
2023/06/20 07:12:35;;;;;;;12.02;9.02;;;;;;;25.63;59.19;100086.88;5123289;28;20055;-17
2023/06/20 07:15:01;;;;;;;12.32;9.23;;;;;;;25.74;59.22;100081.88;5123101;28;20419;-18
2023/06/20 07:17:26;;;;;;;14.95;9.35;;;;;;;25.99;56.98;100085.78;5123149;28;20027;-18
2023/06/20 07:19:53;;;;;;;10.82;8.35;;;;;;;26.04;54.19;100091.88;5123357;28;20031;-21
2023/06/20 07:22:21;;;;;;;10.43;8.15;;;;;;;26.16;55.19;100093.19;5123153;28;20027;-25
2023/06/20 07:24:47;;;;;;;12.13;8.63;;;;;;;26.44;53.00;100104.56;5123204;28;20026;-17
2023/06/20 07:27:12;;;;;;;11.38;9.25;;;;;;;26.35;53.68;100101.03;5123034;28;20677;-17
2023/06/20 07:29:38;;;;;;;11.75;8.27;;;;;;;26.13;54.62;100104.75;5122931;28;20027;-18
2023/06/20 07:32:03;;;;;;;10.77;8.85;;;;;;;26.10;55.20;100105.41;5122957;28;20058;-18
2023/06/20 07:34:29;;;;;;;13.18;9.00;;;;;;;26.27;54.55;100102.63;5122827;28;20031;-17
2023/06/20 07:36:55;;;;;;;10.60;8.43;;;;;;;26.36;53.43;100097.97;5122821;28;20118;-17
2023/06/20 07:39:20;;;;;;;13.05;9.93;;;;;;;26.65;56.02;100108.22;5123185;28;20050;-17
2023/06/20 07:41:46;;;;;;;12.65;8.32;;;;;;;26.62;55.39;100108.91;5122122;28;20441;-18
2023/06/20 07:44:11;;;;;;;10.98;8.20;;;;;;;26.89;54.80;100106.06;5122515;28;20034;-21
2023/06/20 07:46:39;;;;;;;14.80;8.57;;;;;;;27.21;48.17;100108.16;5122573;28;20023;-17
2023/06/20 07:49:04;;;;;;;12.35;7.88;;;;;;;27.14;49.98;100105.16;5122264;28;20493;-16
2023/06/20 07:51:33;;;;;;;9.18;7.57;;;;;;;27.40;50.48;100101.50;5121211;28;20494;-17
2023/06/20 07:53:59;;;;;;;8.93;7.07;;;;;;;27.13;49.86;100100.81;5113661;28;20020;-17
2023/06/20 07:56:24;;;;;;;8.73;7.28;;;;;;;27.43;46.89;100101.63;5108716;28;20085;-18
2023/06/20 07:58:49;;;;;;;11.77;7.30;;;;;;;27.58;49.18;100113.97;5108652;28;20054;-18
2023/06/20 08:01:16;;;;;;;11.77;7.75;;;;;;;27.62;48.92;100103.97;5108675;28;20747;-18
2023/06/20 08:03:42;;;;;;;12.20;7.60;;;;;;;27.86;47.28;100113.44;5108731;28;20024;-18
2023/06/20 08:06:09;;;;;;;8.93;6.97;;;;;;;27.82;47.54;100104.28;5108701;28;20419;-17
2023/06/20 08:08:35;;;;;;;11.10;7.78;;;;;;;27.78;47.62;100111.56;5108667;28;20069;-22
2023/06/20 08:11:01;;;;;;;10.05;7.28;;;;;;;28.31;47.66;100101.78;5108365;28;20158;-17
2023/06/20 08:13:27;;;;;;;8.40;6.90;;;;;;;28.38;48.06;100109.47;5108405;28;20024;-17
2023/06/20 08:15:52;;;;;;;8.32;6.68;;;;;;;28.53;43.06;100105.34;5108449;28;20035;-20
2023/06/20 08:18:17;;;;;;;9.88;7.10;;;;;;;28.26;44.36;100102.03;5108576;28;20093;-18
2023/06/20 08:20:45;;;;;;;8.90;6.78;;;;;;;28.49;44.22;100107.13;5108263;28;20035;-17
2023/06/20 08:23:11;;;;;;;8.98;6.85;;;;;;;28.55;44.43;100106.59;5107960;28;20422;-19
2023/06/20 08:25:36;;;;;;;10.45;6.60;;;;;;;28.58;44.06;100102.34;5108360;28;20498;-18
2023/06/20 08:28:01;;;;;;;8.95;7.18;;;;;;;28.73;43.28;100109.13;5108102;28;20434;-17
2023/06/20 08:30:27;;;;;;;10.88;7.20;;;;;;;28.59;45.97;100104.78;5108434;28;20024;-18
2023/06/20 08:32:52;;;;;;;8.23;6.43;;;;;;;28.61;44.91;100112.66;5108177;28;20418;-20
2023/06/20 08:35:18;;;;;;;9.27;6.57;;;;;;;28.39;41.38;100091.88;5108173;28;20020;-18
2023/06/20 08:37:43;;;;;;;10.07;6.82;;;;;;;28.80;43.29;100101.94;5108240;28;20091;-18
2023/06/20 08:40:13;;;;;;;7.85;6.40;;;;;;;29.24;42.48;100094.00;5107939;28;20092;-18
2023/06/20 08:42:40;;;;;;;8.35;6.22;;;;;;;29.31;41.98;100078.88;5107572;28;20533;-18
2023/06/20 08:45:07;;;;;;;9.05;6.15;;;;;;;29.64;39.01;100087.75;5107682;28;20051;-18
2023/06/20 08:47:32;;;;;;;8.77;6.57;;;;;;;29.44;41.61;100085.94;5107803;28;20470;-17
2023/06/20 08:49:58;;;;;;;10.30;6.00;;;;;;;29.62;41.99;100084.53;5107803;28;20024;-17
2023/06/20 08:52:33;;;;;;;9.48;6.22;;;;;;;29.41;40.69;100084.69;5104937;28;20036;-22
2023/06/20 08:54:59;;;;;;;7.47;5.70;;;;;;;29.58;38.65;100072.66;5094445;28;20052;-20
2023/06/20 08:57:25;;;;;;;7.67;6.00;;;;;;;29.59;38.92;100074.25;5093000;28;20024;-18
2023/06/20 08:59:52;;;;;;;7.45;5.60;;;;;;;29.42;36.17;100082.75;5087312;28;20027;-18
2023/06/20 09:02:18;;;;;;;8.85;5.43;;;;;;;29.71;36.75;100078.13;5087029;28;20036;-18
2023/06/20 09:04:43;;;;;;;7.07;5.47;;;;;;;29.88;36.52;100082.56;5099044;28;20024;-18
2023/06/20 09:07:19;;;;;;;10.07;5.28;;;;;;;30.07;37.53;100073.69;5086439;28;20028;-18
2023/06/20 09:09:45;;;;;;;8.57;6.10;;;;;;;30.24;38.51;100067.88;5086783;28;20530;-18
2023/06/20 09:12:10;;;;;;;8.35;5.53;;;;;;;30.46;36.72;100074.75;5086795;28;20043;-18
2023/06/20 09:14:36;;;;;;;7.53;5.50;;;;;;;30.53;36.28;100074.16;5086791;28;20454;-19
2023/06/20 09:17:03;;;;;;;6.90;5.50;;;;;;;30.66;36.53;100072.91;5086562;28;20020;-19
2023/06/20 09:19:41;;;;;;;7.38;5.28;;;;;;;30.49;38.11;100068.56;5086971;28;20024;-18
2023/06/20 09:22:06;;;;;;;6.90;5.22;;;;;;;30.52;35.08;100072.53;5086607;28;20154;-17
2023/06/20 09:24:41;;;;;;;7.68;5.13;;;;;;;30.59;34.33;100067.25;5086463;28;20517;-18
2023/06/20 09:27:07;;;;;;;7.35;5.07;;;;;;;31.06;35.44;100063.69;5087500;28;20135;-19
2023/06/20 09:29:32;;;;;;;9.85;5.45;;;;;;;31.14;38.38;100062.72;5086678;28;20505;-18
2023/06/20 09:31:57;;;;;;;9.50;5.60;;;;;;;31.47;37.66;100069.78;5086584;28;20115;-18
2023/06/20 09:34:23;;;;;;;8.18;5.28;;;;;;;31.39;35.78;100068.00;5086537;28;20035;-18
2023/06/20 09:36:48;;;;;;;7.53;5.55;;;;;;;31.41;33.93;100069.22;5086321;28;20028;-18
2023/06/20 09:39:20;;;;;;;7.43;5.55;;;;;;;31.76;33.86;100073.13;5086573;28;20024;-18
2023/06/20 09:41:50;;;;;;;6.85;4.70;;;;;;;31.83;35.64;100051.22;5086173;28;20044;-18
2023/06/20 09:44:17;;;;;;;7.47;5.45;;;;;;;31.92;33.98;100057.31;5086162;28;20039;-18
2023/06/20 09:46:43;;;;;;;8.03;5.27;;;;;;;31.84;33.34;100059.13;5086228;28;20659;-19
2023/06/20 09:49:11;;;;;;;7.32;5.03;;;;;;;31.53;31.69;100071.09;5086079;28;20848;-18
2023/06/20 09:51:54;;;;;;;7.25;4.95;;;;;;;31.83;33.06;100062.25;5086190;28;20040;-18
2023/06/20 09:54:34;;;;;;;6.50;5.30;;;;;;;31.50;34.06;100060.75;5086320;28;20089;-18
2023/06/20 09:57:05;;;;;;;7.45;4.95;;;;;;;31.43;36.08;100049.56;5086117;28;20051;-19
2023/06/20 09:59:32;;;;;;;7.15;5.15;;;;;;;31.25;33.26;100051.94;5086217;28;20058;-18
2023/06/20 10:01:59;;;;;;;7.87;5.00;;;;;;;31.87;32.48;100043.00;5085980;28;20028;-21
2023/06/20 10:04:26;;;;;;;7.45;4.90;;;;;;;32.07;31.99;100050.13;5086184;28;20699;-18
2023/06/20 10:06:53;;;;;;;;;;;;;;;32.20;34.10;100036.97;5086218;28;20089;-19
2023/06/20 10:09:19;;;;;;;;;;;;;;;31.86;34.01;100033.94;5086465;28;19912;-18
2023/06/20 10:11:45;;;;;;;6.03;4.38;;;;;;;31.73;31.88;100032.50;5086302;28;19984;-18
2023/06/20 10:14:11;;;;;;;6.25;4.80;;;;;;;31.85;32.18;100032.34;5085428;28;20114;-18
2023/06/20 10:16:36;;;;;;;7.70;5.28;;;;;;;31.53;32.89;100034.47;5085725;28;20503;-18
2023/06/20 10:19:19;;;;;;;7.13;5.03;;;;;;;31.23;34.19;100030.25;5085717;28;20028;-18
2023/06/20 10:21:58;;;;;;;6.60;5.25;;;;;;;31.48;36.01;100005.22;5085681;28;20016;-18
2023/06/20 10:24:28;;;;;;;6.28;5.07;;;;;;;31.89;33.30;100019.41;5085512;28;20039;-17
2023/06/20 10:26:59;;;;;;;7.55;5.47;;;;;;;32.27;33.58;100019.75;5085973;28;20028;-18
2023/06/20 10:29:26;;;;;;;6.60;4.35;;;;;;;32.72;32.06;100013.44;5085698;28;20031;-18
2023/06/20 10:32:06;;;;;;;5.65;4.07;;;;;;;33.29;30.14;100010.75;5085394;28;20078;-18
2023/06/20 10:34:41;;;;;;;5.75;4.03;;;;;;;33.39;27.42;100023.91;5085422;28;20028;-18
2023/06/20 10:37:15;;;;;;;5.72;4.10;;;;;;;32.60;27.53;100006.16;5085510;28;20031;-18
2023/06/20 10:39:57;;;;;;;6.00;4.38;;;;;;;31.84;31.58;100003.97;5085337;28;20031;-19
2023/06/20 10:42:35;;;;;;;6.82;4.60;;;;;;;31.58;32.18;100007.38;5085160;28;20048;-18
2023/06/20 10:45:19;;;;;;;8.00;4.57;;;;;;;31.48;32.29;99999.69;5085262;28;20043;-18
2023/06/20 10:47:45;;;;;;;6.50;4.20;;;;;;;31.45;33.69;100003.19;5067177;28;20047;-18
2023/06/20 10:50:14;;;;;;;6.13;4.83;;;;;;;31.30;31.46;100001.25;5085385;28;20035;-20
2023/06/20 10:52:40;;;;;;;5.53;3.83;;;;;;;31.28;30.80;99998.84;5085118;28;20035;-18
2023/06/20 10:55:26;;;;;;;6.57;4.90;;;;;;;31.08;32.81;100000.78;5085395;28;20027;-18
2023/06/20 10:57:53;;;;;;;5.70;4.35;;;;;;;31.03;34.04;100010.13;5085245;28;20273;-19
2023/06/20 11:00:21;;;;;;;;;;;;;;;30.82;33.25;100006.84;5085877;28;20038;-18
2023/06/20 11:02:49;;;;;;;7.35;4.40;;;;;;;31.00;33.61;99994.31;5085105;28;19919;-18
2023/06/20 11:05:15;;;;;;;5.80;4.40;;;;;;;31.71;33.29;99993.47;5085341;28;20021;-18
2023/06/20 11:07:51;;;;;;;7.13;4.55;;;;;;;32.35;32.06;99972.59;5085219;28;20115;-17
2023/06/20 11:10:16;;;;;;;7.70;4.00;;;;;;;32.92;29.50;99994.03;5085252;28;20032;-18
2023/06/20 11:12:42;;;;;;;4.80;3.60;;;;;;;33.07;27.39;100001.34;5090269;28;20035;-18
2023/06/20 11:15:21;;;;;;;5.47;3.75;;;;;;;33.44;26.44;99995.16;5105007;28;20035;-18
2023/06/20 11:17:48;;;;;;;4.90;3.40;;;;;;;33.97;25.40;99994.19;5105551;28;20063;-18
2023/06/20 11:20:14;;;;;;;7.10;3.20;;;;;;;34.22;24.48;100008.31;5105462;28;20050;-18